sensor_id;sensor_type;location;lat;lon;timestamp;pressure;altitude;pressure_sealevel;temperature;humidity
33265;BME280;31404;53.974;-1.086;2023-04-20T00:00:35;102885.52;;;6.55;82.87
33265;BME280;31404;53.974;-1.086;2023-04-20T00:05:35;102877.40;;;8.44;76.87
33265;BME280;31404;53.974;-1.086;2023-04-20T00:10:35;102876.50;;;9.08;74.27
33265;BME280;31404;53.974;-1.086;2023-04-20T00:15:35;102878.98;;;8.29;76.80
33265;BME280;31404;53.974;-1.086;2023-04-20T00:20:35;102876.93;;;9.24;73.32
33265;BME280;31404;53.974;-1.086;2023-04-20T00:25:35;102870.24;;;9.24;73.41
33265;BME280;31404;53.974;-1.086;2023-04-20T00:30:36;102869.21;;;9.48;72.57
33265;BME280;31404;53.974;-1.086;2023-04-20T00:35:35;102865.24;;;10.04;71.47
33265;BME280;31404;53.974;-1.086;2023-04-20T00:40:34;102863.19;;;9.07;73.50
33265;BME280;31404;53.974;-1.086;2023-04-20T00:45:40;102855.84;;;8.21;79.36
33265;BME280;31404;53.974;-1.086;2023-04-20T00:50:37;102857.41;;;8.14;77.91
33265;BME280;31404;53.974;-1.086;2023-04-20T00:55:36;102857.54;;;8.61;77.45
33265;BME280;31404;53.974;-1.086;2023-04-20T01:00:35;102851.89;;;8.41;79.47
33265;BME280;31404;53.974;-1.086;2023-04-20T01:05:35;102855.71;;;6.07;89.00
33265;BME280;31404;53.974;-1.086;2023-04-20T01:10:35;102848.24;;;8.01;82.27
33265;BME280;31404;53.974;-1.086;2023-04-20T01:15:35;102844.75;;;8.52;79.57
33265;BME280;31404;53.974;-1.086;2023-04-20T01:20:36;102843.91;;;7.27;84.76
33265;BME280;31404;53.974;-1.086;2023-04-20T01:25:35;102837.02;;;8.06;82.70
33265;BME280;31404;53.974;-1.086;2023-04-20T01:30:35;102835.22;;;8.64;80.62
33265;BME280;31404;53.974;-1.086;2023-04-20T01:35:35;102837.10;;;8.44;81.07
33265;BME280;31404;53.974;-1.086;2023-04-20T01:40:36;102836.55;;;8.58;80.06
33265;BME280;31404;53.974;-1.086;2023-04-20T01:45:36;102828.70;;;8.11;80.76
33265;BME280;31404;53.974;-1.086;2023-04-20T01:50:34;102820.01;;;7.59;83.51
33265;BME280;31404;53.974;-1.086;2023-04-20T01:55:34;102814.20;;;7.49;83.35
33265;BME280;31404;53.974;-1.086;2023-04-20T02:00:34;102810.18;;;8.02;81.88
33265;BME280;31404;53.974;-1.086;2023-04-20T02:05:35;102806.80;;;7.83;82.88
33265;BME280;31404;53.974;-1.086;2023-04-20T02:10:35;102804.70;;;7.83;82.49
33265;BME280;31404;53.974;-1.086;2023-04-20T02:20:39;102805.30;;;8.23;80.83
33265;BME280;31404;53.974;-1.086;2023-04-20T02:25:35;102805.63;;;8.32;81.38
33265;BME280;31404;53.974;-1.086;2023-04-20T02:30:35;102801.53;;;8.12;81.70
33265;BME280;31404;53.974;-1.086;2023-04-20T02:35:35;102796.64;;;7.79;83.09
33265;BME280;31404;53.974;-1.086;2023-04-20T02:40:35;102794.62;;;7.09;85.80
33265;BME280;31404;53.974;-1.086;2023-04-20T02:45:35;102792.17;;;7.30;85.27
33265;BME280;31404;53.974;-1.086;2023-04-20T02:50:34;102788.38;;;7.50;84.48
33265;BME280;31404;53.974;-1.086;2023-04-20T02:55:35;102789.47;;;7.37;84.01
33265;BME280;31404;53.974;-1.086;2023-04-20T03:00:35;102793.29;;;6.45;88.97
33265;BME280;31404;53.974;-1.086;2023-04-20T03:05:35;102786.47;;;6.79;87.86
33265;BME280;31404;53.974;-1.086;2023-04-20T03:10:35;102776.42;;;7.31;86.71
33265;BME280;31404;53.974;-1.086;2023-04-20T03:15:35;102776.62;;;7.57;84.89
33265;BME280;31404;53.974;-1.086;2023-04-20T03:20:36;102780.58;;;7.47;84.78
33265;BME280;31404;53.974;-1.086;2023-04-20T03:25:35;102777.94;;;6.56;88.36
33265;BME280;31404;53.974;-1.086;2023-04-20T03:30:35;102771.85;;;7.19;86.66
33265;BME280;31404;53.974;-1.086;2023-04-20T03:35:35;102773.92;;;6.68;88.59
33265;BME280;31404;53.974;-1.086;2023-04-20T03:40:35;102776.48;;;6.19;90.68
33265;BME280;31404;53.974;-1.086;2023-04-20T03:45:35;102773.99;;;6.15;91.14
33265;BME280;31404;53.974;-1.086;2023-04-20T03:50:35;102767.57;;;6.12;92.41
33265;BME280;31404;53.974;-1.086;2023-04-20T03:55:36;102770.46;;;6.40;91.72
33265;BME280;31404;53.974;-1.086;2023-04-20T04:05:35;102770.26;;;7.03;87.97
33265;BME280;31404;53.974;-1.086;2023-04-20T04:10:35;102768.53;;;6.15;92.61
33265;BME280;31404;53.974;-1.086;2023-04-20T04:15:35;102761.66;;;6.60;90.35
33265;BME280;31404;53.974;-1.086;2023-04-20T04:20:35;102763.61;;;6.89;87.97
33265;BME280;31404;53.974;-1.086;2023-04-20T04:25:37;102763.58;;;7.18;86.05
33265;BME280;31404;53.974;-1.086;2023-04-20T04:30:35;102759.41;;;7.68;83.93
33265;BME280;31404;53.974;-1.086;2023-04-20T04:35:35;102757.64;;;7.20;85.16
33265;BME280;31404;53.974;-1.086;2023-04-20T04:40:35;102760.17;;;6.82;86.41
33265;BME280;31404;53.974;-1.086;2023-04-20T04:45:37;102757.70;;;7.08;85.20
33265;BME280;31404;53.974;-1.086;2023-04-20T04:50:35;102752.97;;;6.63;87.93
33265;BME280;31404;53.974;-1.086;2023-04-20T04:55:35;102754.69;;;6.83;87.50
33265;BME280;31404;53.974;-1.086;2023-04-20T05:00:35;102758.69;;;6.77;88.08
33265;BME280;31404;53.974;-1.086;2023-04-20T05:05:36;102764.11;;;6.31;89.76
33265;BME280;31404;53.974;-1.086;2023-04-20T05:15:35;102761.94;;;7.35;86.64
33265;BME280;31404;53.974;-1.086;2023-04-20T05:20:35;102761.25;;;7.00;87.89
33265;BME280;31404;53.974;-1.086;2023-04-20T05:25:38;102765.09;;;6.37;90.01
33265;BME280;31404;53.974;-1.086;2023-04-20T05:40:36;102769.91;;;6.30;93.73
33265;BME280;31404;53.974;-1.086;2023-04-20T05:45:35;102774.08;;;6.21;95.29
33265;BME280;31404;53.974;-1.086;2023-04-20T05:50:35;102769.23;;;6.32;95.59
33265;BME280;31404;53.974;-1.086;2023-04-20T05:55:35;102769.50;;;5.78;98.10
33265;BME280;31404;53.974;-1.086;2023-04-20T06:00:35;102769.80;;;5.61;100.00
33265;BME280;31404;53.974;-1.086;2023-04-20T06:10:35;102772.34;;;6.71;96.64
33265;BME280;31404;53.974;-1.086;2023-04-20T06:15:35;102773.53;;;6.90;99.62
33265;BME280;31404;53.974;-1.086;2023-04-20T06:20:35;102782.16;;;6.39;97.74
33265;BME280;31404;53.974;-1.086;2023-04-20T06:25:35;102778.64;;;6.92;95.69
33265;BME280;31404;53.974;-1.086;2023-04-20T06:30:35;102777.85;;;7.52;91.62
33265;BME280;31404;53.974;-1.086;2023-04-20T06:35:35;102776.56;;;6.27;97.27
33265;BME280;31404;53.974;-1.086;2023-04-20T06:40:36;102778.28;;;6.26;100.00
33265;BME280;31404;53.974;-1.086;2023-04-20T06:45:35;102776.92;;;6.67;97.20
33265;BME280;31404;53.974;-1.086;2023-04-20T06:50:35;102779.88;;;6.60;98.75
33265;BME280;31404;53.974;-1.086;2023-04-20T06:55:35;102778.52;;;6.72;99.41
33265;BME280;31404;53.974;-1.086;2023-04-20T07:00:36;102794.96;;;4.60;100.00
33265;BME280;31404;53.974;-1.086;2023-04-20T07:05:35;102789.50;;;5.27;100.00
33265;BME280;31404;53.974;-1.086;2023-04-20T07:10:36;102782.50;;;5.91;100.00
33265;BME280;31404;53.974;-1.086;2023-04-20T07:15:35;102783.19;;;6.59;99.44
33265;BME280;31404;53.974;-1.086;2023-04-20T07:20:35;102787.64;;;6.22;99.82
33265;BME280;31404;53.974;-1.086;2023-04-20T07:25:35;102782.10;;;6.85;96.93
33265;BME280;31404;53.974;-1.086;2023-04-20T07:30:36;102774.53;;;6.81;98.03
33265;BME280;31404;53.974;-1.086;2023-04-20T07:40:36;102769.47;;;7.19;97.52
33265;BME280;31404;53.974;-1.086;2023-04-20T07:45:37;102768.86;;;7.71;92.81
33265;BME280;31404;53.974;-1.086;2023-04-20T07:50:35;102764.68;;;7.60;92.60
33265;BME280;31404;53.974;-1.086;2023-04-20T07:55:35;102760.34;;;7.28;93.99
33265;BME280;31404;53.974;-1.086;2023-04-20T08:00:35;102761.60;;;8.18;88.17
33265;BME280;31404;53.974;-1.086;2023-04-20T08:05:37;102753.39;;;9.03;84.72
33265;BME280;31404;53.974;-1.086;2023-04-20T08:10:35;102752.82;;;8.28;86.03
33265;BME280;31404;53.974;-1.086;2023-04-20T08:15:35;102753.98;;;8.50;84.05
33265;BME280;31404;53.974;-1.086;2023-04-20T08:30:35;102749.91;;;7.92;86.07
33265;BME280;31404;53.974;-1.086;2023-04-20T08:35:35;102751.43;;;8.26;85.01
33265;BME280;31404;53.974;-1.086;2023-04-20T08:40:36;102747.94;;;6.72;90.80
33265;BME280;31404;53.974;-1.086;2023-04-20T08:45:35;102737.87;;;8.96;82.80
33265;BME280;31404;53.974;-1.086;2023-04-20T08:50:36;102731.25;;;9.05;79.94
33265;BME280;31404;53.974;-1.086;2023-04-20T08:55:35;102730.43;;;9.19;77.79
33265;BME280;31404;53.974;-1.086;2023-04-20T09:05:35;102721.88;;;9.12;79.01
33265;BME280;31404;53.974;-1.086;2023-04-20T09:15:35;102720.24;;;9.02;78.27
33265;BME280;31404;53.974;-1.086;2023-04-20T09:20:35;102715.86;;;9.37;75.89
33265;BME280;31404;53.974;-1.086;2023-04-20T09:25:35;102710.79;;;9.46;72.24
33265;BME280;31404;53.974;-1.086;2023-04-20T09:30:37;102703.96;;;9.62;70.51
33265;BME280;31404;53.974;-1.086;2023-04-20T09:35:35;102705.08;;;8.80;70.10
33265;BME280;31404;53.974;-1.086;2023-04-20T09:40:35;102710.36;;;6.99;76.80
33265;BME280;31404;53.974;-1.086;2023-04-20T09:45:36;102704.51;;;8.50;76.17
33265;BME280;31404;53.974;-1.086;2023-04-20T09:50:36;102700.94;;;6.63;77.57
33265;BME280;31404;53.974;-1.086;2023-04-20T09:55:36;102692.38;;;6.34;78.65
33265;BME280;31404;53.974;-1.086;2023-04-20T10:00:35;102680.84;;;7.48;70.98
33265;BME280;31404;53.974;-1.086;2023-04-20T10:05:36;102678.61;;;9.06;62.86
33265;BME280;31404;53.974;-1.086;2023-04-20T10:15:37;102669.98;;;10.29;60.50
33265;BME280;31404;53.974;-1.086;2023-04-20T10:20:35;102670.80;;;9.56;59.05
33265;BME280;31404;53.974;-1.086;2023-04-20T10:25:35;102668.01;;;9.57;58.45
33265;BME280;31404;53.974;-1.086;2023-04-20T10:30:36;102662.02;;;10.05;53.60
33265;BME280;31404;53.974;-1.086;2023-04-20T10:40:35;102649.45;;;9.56;53.73
33265;BME280;31404;53.974;-1.086;2023-04-20T10:45:36;102645.37;;;8.40;57.60
33265;BME280;31404;53.974;-1.086;2023-04-20T10:50:36;102642.08;;;10.15;53.86
33265;BME280;31404;53.974;-1.086;2023-04-20T11:00:35;102631.68;;;8.82;54.36
33265;BME280;31404;53.974;-1.086;2023-04-20T11:05:35;102630.95;;;10.13;54.09
33265;BME280;31404;53.974;-1.086;2023-04-20T11:10:38;102630.36;;;10.65;51.36
33265;BME280;31404;53.974;-1.086;2023-04-20T11:15:35;102639.05;;;10.18;53.54
33265;BME280;31404;53.974;-1.086;2023-04-20T11:20:35;102628.92;;;10.42;52.71
33265;BME280;31404;53.974;-1.086;2023-04-20T11:25:35;102618.15;;;10.31;52.61
33265;BME280;31404;53.974;-1.086;2023-04-20T11:35:35;102622.61;;;10.17;50.83
33265;BME280;31404;53.974;-1.086;2023-04-20T11:40:35;102612.61;;;10.16;51.81
33265;BME280;31404;53.974;-1.086;2023-04-20T11:45:35;102603.82;;;9.20;53.15
33265;BME280;31404;53.974;-1.086;2023-04-20T11:50:35;102607.43;;;10.51;50.19
33265;BME280;31404;53.974;-1.086;2023-04-20T11:55:35;102597.79;;;11.17;49.94
33265;BME280;31404;53.974;-1.086;2023-04-20T12:00:35;102595.88;;;11.70;49.09
33265;BME280;31404;53.974;-1.086;2023-04-20T12:05:35;102587.58;;;10.86;50.33
33265;BME280;31404;53.974;-1.086;2023-04-20T12:10:34;102588.35;;;10.38;51.33
33265;BME280;31404;53.974;-1.086;2023-04-20T12:15:35;102575.51;;;12.01;48.98
33265;BME280;31404;53.974;-1.086;2023-04-20T12:20:35;102582.06;;;10.75;52.16
33265;BME280;31404;53.974;-1.086;2023-04-20T12:25:35;102576.77;;;11.07;52.77
33265;BME280;31404;53.974;-1.086;2023-04-20T12:30:36;102566.44;;;11.47;52.63
33265;BME280;31404;53.974;-1.086;2023-04-20T12:35:35;102559.89;;;11.92;51.42
33265;BME280;31404;53.974;-1.086;2023-04-20T12:40:35;102560.77;;;10.67;53.38
33265;BME280;31404;53.974;-1.086;2023-04-20T12:45:35;102559.62;;;9.71;56.96
33265;BME280;31404;53.974;-1.086;2023-04-20T12:50:28;102558.72;;;11.16;58.28
33265;BME280;31404;53.974;-1.086;2023-04-20T12:55:35;102546.79;;;12.99;53.17
33265;BME280;31404;53.974;-1.086;2023-04-20T13:00:35;102539.14;;;9.82;58.57
33265;BME280;31404;53.974;-1.086;2023-04-20T13:05:35;102539.05;;;10.91;54.47
33265;BME280;31404;53.974;-1.086;2023-04-20T13:10:37;102535.58;;;12.27;48.81
33265;BME280;31404;53.974;-1.086;2023-04-20T13:15:36;102532.30;;;12.57;48.21
33265;BME280;31404;53.974;-1.086;2023-04-20T13:20:35;102528.19;;;12.93;47.74
33265;BME280;31404;53.974;-1.086;2023-04-20T13:30:35;102524.39;;;8.57;53.34
33265;BME280;31404;53.974;-1.086;2023-04-20T13:35:36;102519.06;;;10.34;51.48
33265;BME280;31404;53.974;-1.086;2023-04-20T13:40:34;102522.32;;;11.04;47.42
33265;BME280;31404;53.974;-1.086;2023-04-20T13:45:36;102512.72;;;10.73;48.99
33265;BME280;31404;53.974;-1.086;2023-04-20T13:50:35;102503.51;;;10.94;47.20
33265;BME280;31404;53.974;-1.086;2023-04-20T13:55:34;102493.26;;;10.39;48.01
33265;BME280;31404;53.974;-1.086;2023-04-20T14:05:40;102476.95;;;9.42;50.42
33265;BME280;31404;53.974;-1.086;2023-04-20T14:10:35;102464.47;;;8.14;52.93
33265;BME280;31404;53.974;-1.086;2023-04-20T14:15:35;102463.01;;;9.35;50.43
33265;BME280;31404;53.974;-1.086;2023-04-20T14:20:35;102460.96;;;11.64;48.39
33265;BME280;31404;53.974;-1.086;2023-04-20T14:30:35;102438.87;;;11.44;46.45
33265;BME280;31404;53.974;-1.086;2023-04-20T14:35:36;102439.12;;;10.53;48.37
33265;BME280;31404;53.974;-1.086;2023-04-20T14:40:35;102439.37;;;10.93;48.14
33265;BME280;31404;53.974;-1.086;2023-04-20T14:45:35;102442.40;;;10.13;48.78
33265;BME280;31404;53.974;-1.086;2023-04-20T14:50:35;102432.93;;;12.43;46.02
33265;BME280;31404;53.974;-1.086;2023-04-20T14:55:35;102429.95;;;10.20;49.84
33265;BME280;31404;53.974;-1.086;2023-04-20T15:00:35;102416.50;;;10.91;48.96
33265;BME280;31404;53.974;-1.086;2023-04-20T15:05:35;102415.18;;;12.26;46.03
33265;BME280;31404;53.974;-1.086;2023-04-20T15:10:36;102408.59;;;10.99;47.05
33265;BME280;31404;53.974;-1.086;2023-04-20T15:15:35;102403.78;;;11.33;47.08
33265;BME280;31404;53.974;-1.086;2023-04-20T15:20:35;102380.05;;;9.89;50.03
33265;BME280;31404;53.974;-1.086;2023-04-20T15:25:36;102385.19;;;10.95;47.63
33265;BME280;31404;53.974;-1.086;2023-04-20T15:30:35;102370.55;;;10.29;47.53
33265;BME280;31404;53.974;-1.086;2023-04-20T15:35:36;102353.42;;;9.65;48.05
33265;BME280;31404;53.974;-1.086;2023-04-20T15:40:35;102362.39;;;10.83;47.79
33265;BME280;31404;53.974;-1.086;2023-04-20T15:45:36;102361.88;;;10.31;45.73
33265;BME280;31404;53.974;-1.086;2023-04-20T15:50:35;102360.41;;;10.62;46.60
33265;BME280;31404;53.974;-1.086;2023-04-20T15:55:37;102358.64;;;10.88;45.77
33265;BME280;31404;53.974;-1.086;2023-04-20T16:00:37;102364.26;;;11.52;46.74
33265;BME280;31404;53.974;-1.086;2023-04-20T16:05:35;102360.49;;;12.84;44.09
33265;BME280;31404;53.974;-1.086;2023-04-20T16:10:34;102362.15;;;12.43;43.54
33265;BME280;31404;53.974;-1.086;2023-04-20T16:15:37;102356.18;;;12.22;42.85
33265;BME280;31404;53.974;-1.086;2023-04-20T16:25:36;102357.58;;;12.36;46.09
33265;BME280;31404;53.974;-1.086;2023-04-20T16:30:34;102357.68;;;11.55;49.17
33265;BME280;31404;53.974;-1.086;2023-04-20T16:35:35;102351.40;;;11.24;49.75
33265;BME280;31404;53.974;-1.086;2023-04-20T16:40:37;102344.75;;;12.51;50.02
33265;BME280;31404;53.974;-1.086;2023-04-20T16:45:35;102348.86;;;12.10;51.81
33265;BME280;31404;53.974;-1.086;2023-04-20T16:50:35;102342.18;;;11.55;52.26
33265;BME280;31404;53.974;-1.086;2023-04-20T16:55:35;102345.55;;;10.71;53.78
33265;BME280;31404;53.974;-1.086;2023-04-20T17:00:35;102351.98;;;10.53;54.56
33265;BME280;31404;53.974;-1.086;2023-04-20T17:05:37;102342.19;;;11.28;54.00
33265;BME280;31404;53.974;-1.086;2023-04-20T17:10:35;102339.67;;;11.19;54.84
33265;BME280;31404;53.974;-1.086;2023-04-20T17:15:35;102333.92;;;11.19;53.80
33265;BME280;31404;53.974;-1.086;2023-04-20T17:20:36;102339.18;;;11.68;52.31
33265;BME280;31404;53.974;-1.086;2023-04-20T17:30:35;102328.44;;;10.91;53.95
33265;BME280;31404;53.974;-1.086;2023-04-20T17:35:36;102327.22;;;10.59;54.17
33265;BME280;31404;53.974;-1.086;2023-04-20T17:40:36;102312.44;;;11.04;54.66
33265;BME280;31404;53.974;-1.086;2023-04-20T17:45:36;102299.48;;;11.49;53.75
33265;BME280;31404;53.974;-1.086;2023-04-20T17:50:35;102296.73;;;10.64;55.27
33265;BME280;31404;53.974;-1.086;2023-04-20T18:00:36;102308.96;;;10.57;57.51
33265;BME280;31404;53.974;-1.086;2023-04-20T18:05:34;102317.36;;;10.24;59.62
33265;BME280;31404;53.974;-1.086;2023-04-20T18:10:35;102315.58;;;10.44;60.78
33265;BME280;31404;53.974;-1.086;2023-04-20T18:15:35;102317.62;;;10.31;62.32
33265;BME280;31404;53.974;-1.086;2023-04-20T18:20:34;102321.81;;;8.86;67.28
33265;BME280;31404;53.974;-1.086;2023-04-20T18:25:35;102317.41;;;8.64;69.16
33265;BME280;31404;53.974;-1.086;2023-04-20T18:30:35;102318.54;;;7.68;72.77
33265;BME280;31404;53.974;-1.086;2023-04-20T18:35:35;102326.47;;;9.69;68.18
33265;BME280;31404;53.974;-1.086;2023-04-20T18:40:36;102319.73;;;9.39;70.08
33265;BME280;31404;53.974;-1.086;2023-04-20T18:50:36;102334.97;;;9.08;72.44
33265;BME280;31404;53.974;-1.086;2023-04-20T18:55:36;102343.36;;;6.62;82.20
33265;BME280;31404;53.974;-1.086;2023-04-20T19:00:35;102339.58;;;6.49;80.88
33265;BME280;31404;53.974;-1.086;2023-04-20T19:05:36;102327.88;;;7.58;77.87
33265;BME280;31404;53.974;-1.086;2023-04-20T19:10:35;102316.61;;;8.05;77.29
33265;BME280;31404;53.974;-1.086;2023-04-20T19:15:35;102314.96;;;7.81;78.14
33265;BME280;31404;53.974;-1.086;2023-04-20T19:20:36;102306.37;;;9.21;72.32
33265;BME280;31404;53.974;-1.086;2023-04-20T19:25:35;102308.25;;;7.89;76.29
33265;BME280;31404;53.974;-1.086;2023-04-20T19:30:35;102310.07;;;9.96;71.27
33265;BME280;31404;53.974;-1.086;2023-04-20T19:35:35;102296.25;;;8.95;74.25
33265;BME280;31404;53.974;-1.086;2023-04-20T19:40:35;102294.79;;;9.16;72.37
33265;BME280;31404;53.974;-1.086;2023-04-20T19:45:35;102289.74;;;9.46;72.92
33265;BME280;31404;53.974;-1.086;2023-04-20T19:50:35;102277.24;;;10.04;69.73
33265;BME280;31404;53.974;-1.086;2023-04-20T19:55:35;102308.59;;;7.54;81.19
33265;BME280;31404;53.974;-1.086;2023-04-20T20:00:36;102306.82;;;6.43;86.64
33265;BME280;31404;53.974;-1.086;2023-04-20T20:05:35;102304.31;;;7.46;83.60
33265;BME280;31404;53.974;-1.086;2023-04-20T20:10:35;102294.70;;;6.89;84.77
33265;BME280;31404;53.974;-1.086;2023-04-20T20:15:36;102290.95;;;7.75;80.85
33265;BME280;31404;53.974;-1.086;2023-04-20T20:20:36;102287.86;;;7.47;82.42
33265;BME280;31404;53.974;-1.086;2023-04-20T20:25:37;102282.60;;;8.56;79.08
33265;BME280;31404;53.974;-1.086;2023-04-20T20:30:34;102281.65;;;8.25;79.21
33265;BME280;31404;53.974;-1.086;2023-04-20T20:35:35;102275.37;;;8.38;77.96
33265;BME280;31404;53.974;-1.086;2023-04-20T20:40:37;102270.83;;;8.99;76.26
33265;BME280;31404;53.974;-1.086;2023-04-20T20:45:36;102271.59;;;9.37;73.68
33265;BME280;31404;53.974;-1.086;2023-04-20T20:50:34;102277.34;;;8.98;76.99
33265;BME280;31404;53.974;-1.086;2023-04-20T20:55:36;102285.52;;;9.47;73.78
33265;BME280;31404;53.974;-1.086;2023-04-20T21:00:36;102276.46;;;9.23;75.27
33265;BME280;31404;53.974;-1.086;2023-04-20T21:05:34;102273.43;;;8.48;78.02
33265;BME280;31404;53.974;-1.086;2023-04-20T21:10:36;102273.33;;;9.47;75.27
33265;BME280;31404;53.974;-1.086;2023-04-20T21:15:34;102255.75;;;8.53;78.53
33265;BME280;31404;53.974;-1.086;2023-04-20T21:20:36;102258.75;;;8.47;78.64
33265;BME280;31404;53.974;-1.086;2023-04-20T21:25:34;102259.37;;;7.14;85.70
33265;BME280;31404;53.974;-1.086;2023-04-20T21:30:36;102253.55;;;8.05;82.35
33265;BME280;31404;53.974;-1.086;2023-04-20T21:35:34;102254.59;;;8.19;83.38
33265;BME280;31404;53.974;-1.086;2023-04-20T21:40:40;102243.95;;;8.44;81.78
33265;BME280;31404;53.974;-1.086;2023-04-20T21:45:35;102239.34;;;7.82;84.70
33265;BME280;31404;53.974;-1.086;2023-04-20T21:50:36;102235.65;;;7.72;84.79
33265;BME280;31404;53.974;-1.086;2023-04-20T21:55:35;102233.91;;;8.19;83.53
33265;BME280;31404;53.974;-1.086;2023-04-20T22:00:35;102236.57;;;7.21;86.83
33265;BME280;31404;53.974;-1.086;2023-04-20T22:05:36;102234.00;;;7.93;84.82
33265;BME280;31404;53.974;-1.086;2023-04-20T22:10:35;102234.22;;;7.50;87.24
33265;BME280;31404;53.974;-1.086;2023-04-20T22:15:35;102235.00;;;7.72;85.83
33265;BME280;31404;53.974;-1.086;2023-04-20T22:20:38;102235.66;;;8.18;83.14
33265;BME280;31404;53.974;-1.086;2023-04-20T22:25:41;102233.33;;;7.01;88.70
33265;BME280;31404;53.974;-1.086;2023-04-20T22:30:35;102243.54;;;8.29;84.54
33265;BME280;31404;53.974;-1.086;2023-04-20T22:35:35;102241.27;;;8.69;82.30
33265;BME280;31404;53.974;-1.086;2023-04-20T22:40:36;102232.96;;;7.40;87.28
33265;BME280;31404;53.974;-1.086;2023-04-20T22:45:36;102222.65;;;8.06;85.88
33265;BME280;31404;53.974;-1.086;2023-04-20T22:50:35;102216.86;;;8.06;85.04
33265;BME280;31404;53.974;-1.086;2023-04-20T22:55:35;102217.79;;;7.57;87.38
33265;BME280;31404;53.974;-1.086;2023-04-20T23:00:45;102220.99;;;7.92;86.99
33265;BME280;31404;53.974;-1.086;2023-04-20T23:05:35;102210.07;;;8.43;84.51
33265;BME280;31404;53.974;-1.086;2023-04-20T23:10:36;102204.99;;;7.83;87.50
33265;BME280;31404;53.974;-1.086;2023-04-20T23:15:34;102199.68;;;7.33;89.23
33265;BME280;31404;53.974;-1.086;2023-04-20T23:20:36;102190.13;;;7.93;88.07
33265;BME280;31404;53.974;-1.086;2023-04-20T23:25:38;102195.43;;;8.13;85.63
33265;BME280;31404;53.974;-1.086;2023-04-20T23:30:35;102186.03;;;8.75;84.26
33265;BME280;31404;53.974;-1.086;2023-04-20T23:35:36;102183.99;;;9.30;81.28
33265;BME280;31404;53.974;-1.086;2023-04-20T23:40:35;102176.42;;;8.60;84.33
33265;BME280;31404;53.974;-1.086;2023-04-20T23:45:40;102168.68;;;9.62;80.04
33265;BME280;31404;53.974;-1.086;2023-04-20T23:50:35;102160.55;;;9.95;78.85
33265;BME280;31404;53.974;-1.086;2023-04-20T23:55:35;102155.04;;;10.04;77.52
